Saint Wolfgang, Austria

7:50 AM CET on February 13, 2016 (GMT +0100)
Salzburg Flughafen | | Change Station
CLOSE
Current Station
Airport
Location: Salzburg Flughafen,
Elevation: 1411 ft
Nearby Weather Stations

Elev 1411 ft 47.79 °N, 13.01 °E | Updated 30 minutes ago

Mostly Cloudy
Mostly Cloudy
32 °F
Feels Like 32 °F
N
2
Wind Variable Wind from Variable

Today
High -- | Low -- °F
--% Chance of Precip.
Yesterday
High -- | Low -- °F
Precip. -- in
Pressure 29.39 in
Visibility 6.2 miles
Clouds Few 4500 ft
Mostly Cloudy 6000 ft
Dew Point 30 °F
Humidity 93%
Rainfall 0.00 in
Snow Depth Not available.
7:16 AM 5:24 PM
Waxing Crescent, 27% visible
METAR LOWS 130620Z VRB02KT 9999 FEW045 BKN060 00/M01 Q0995 NOSIG
Pressure 29.39 in
Visibility 6.2 miles
Clouds Few 4500 ft
Mostly Cloudy 6000 ft
Dew Point 30 °F
Humidity 93%
Rainfall 0.00 in
Snow Depth Not available.
7:16 AM 5:24 PM
Waxing Crescent, 27% visible
METAR LOWS 130620Z VRB02KT 9999 FEW045 BKN060 00/M01 Q0995 NOSIG

10-Day Weather Forecast

Almanac

Astronomy

Feb. 13, 2016 Rise Set
Actual Time
Civil Twilight
Nautical Twilight
Astronomical Twilight
Moon
Length of Visible Light
Length of Day
Tomorrow will be .
, % of the Moon is Illuminated

Today's Extremes

Country Highs Country Lows

Community

WunderPhotos

Upload Photos

1,892,519 photos uploaded!

WunderBlog® & News

Nearby

Air Quality

  Air Quality AQ Index Pollutant
Not available.

Snow Depth

Station Depth Elevation

Earthquake Activity

City Distance Mag. Time & Date
Minimum magnitude displayed is 2.5.

Coastal Water Temperatures

Place Temperature

Stations

Nearby Weather Stations

Station Location Temp. Windchill Dew Point Humidity Wind Precip. Elev Updated Type